Time;durP1;ratioP1;P1;durP2;ratioP2;P2;SDS_P1;SDS_P2;PMS_P1;PMS_P2;Temp;Humidity;BMP_temperature;BMP_pressure;BME280_temperature;BME280_humidity;BME280_pressure;Samples;Min_cycle;Max_cycle;Signal;HPM_P1;HPM_P2
2023/02/16 00:04:30;;;;;;;31.63;13.52;;;0.60;99.90;;;;;;20697777;28;20036;-77
2023/02/16 00:14:33;;;;;;;35.75;15.52;;;0.40;99.90;;;;;;20694178;28;20319;-77
2023/02/16 00:24:34;;;;;;;37.97;15.80;;;-0.20;99.90;;;;;;20703696;28;20418;-76
2023/02/16 00:34:40;;;;;;;37.70;15.13;;;-0.50;99.90;;;;;;20701833;28;20038;-77
2023/02/16 00:44:45;;;;;;;41.83;17.27;;;-0.60;99.90;;;;;;20697078;28;20022;-77
2023/02/16 00:54:46;;;;;;;27.35;12.38;;;-0.40;99.90;;;;;;20701438;28;20088;-77
2023/02/16 01:04:47;;;;;;;32.75;13.82;;;-0.40;99.90;;;;;;20699340;28;20018;-76
2023/02/16 01:14:52;;;;;;;28.45;11.05;;;-0.60;99.90;;;;;;20676708;28;20034;-76
2023/02/16 01:24:52;;;;;;;29.63;12.52;;;-0.80;99.90;;;;;;20658161;28;20548;-76
2023/02/16 01:34:53;;;;;;;40.40;16.50;;;-1.10;99.90;;;;;;20691841;28;20049;-76
2023/02/16 01:45:22;;;;;;;50.83;19.65;;;-1.00;99.90;;;;;;20695186;28;20030;-75
2023/02/16 01:55:41;;;;;;;59.45;24.25;;;-1.10;99.90;;;;;;20711201;28;20034;-74
2023/02/16 02:05:42;;;;;;;47.78;18.80;;;-1.10;99.90;;;;;;20689875;28;20022;-76
2023/02/16 02:15:43;;;;;;;35.67;15.57;;;-1.10;99.90;;;;;;20693692;28;20148;-76
2023/02/16 02:26:02;;;;;;;40.65;17.33;;;-1.00;99.90;;;;;;20696065;28;20085;-77
2023/02/16 02:36:35;;;;;;;33.60;15.00;;;-0.90;99.90;;;;;;20700597;28;20167;-76
2023/02/16 02:46:36;;;;;;;70.80;22.27;;;-1.20;99.90;;;;;;20709800;28;20089;-76
2023/02/16 03:07:02;;;;;;;76.03;22.63;;;-0.90;99.90;;;;;;20693523;28;20072;-76
2023/02/16 03:38:02;;;;;;;58.83;20.27;;;-1.00;99.90;;;;;;20708815;28;20034;-76
2023/02/16 03:48:03;;;;;;;49.72;19.73;;;-1.00;99.90;;;;;;20696467;28;20400;-76
2023/02/16 03:58:05;;;;;;;63.35;19.80;;;-1.10;99.90;;;;;;20697204;28;20481;-76
2023/02/16 04:08:07;;;;;;;40.47;18.73;;;-1.20;99.90;;;;;;20707677;28;20041;-76
2023/02/16 04:18:08;;;;;;;41.67;18.77;;;-1.30;99.90;;;;;;20688145;28;20528;-76
2023/02/16 04:28:09;;;;;;;44.08;19.65;;;-1.40;99.90;;;;;;20700239;28;20124;-76
2023/02/16 04:38:09;;;;;;;54.10;20.02;;;-1.20;99.90;;;;;;20696803;28;20507;-77
2023/02/16 04:48:10;;;;;;;42.78;18.48;;;-1.40;99.90;;;;;;20697087;28;20030;-75
2023/02/16 04:58:11;;;;;;;37.22;17.55;;;-1.50;99.90;;;;;;20708311;28;20403;-77
2023/02/16 05:08:12;;;;;;;43.65;17.05;;;-1.50;99.90;;;;;;20747014;28;20037;-76
2023/02/16 05:18:13;;;;;;;108.10;21.02;;;-1.60;99.90;;;;;;20640708;28;20023;-78
2023/02/16 05:28:13;;;;;;;113.20;23.60;;;-1.80;99.90;;;;;;20619260;28;20037;-77
2023/02/16 05:38:14;;;;;;;220.63;27.75;;;-1.80;99.90;;;;;;20641436;28;20110;-76
2023/02/16 05:48:15;;;;;;;126.35;20.67;;;-2.00;99.90;;;;;;20638867;28;20122;-78
2023/02/16 05:58:16;;;;;;;54.00;22.15;;;-1.80;99.90;;;;;;20644743;28;20062;-78
2023/02/16 06:08:17;;;;;;;147.13;23.77;;;-1.90;99.90;;;;;;20596770;28;20035;-79
2023/02/16 06:18:17;;;;;;;99.13;22.25;;;-1.90;99.90;;;;;;20584399;28;20023;-75
2023/02/16 06:28:18;;;;;;;50.25;19.17;;;-1.90;99.90;;;;;;20598520;28;20086;-76
2023/02/16 06:38:19;;;;;;;69.07;22.65;;;-1.80;99.90;;;;;;20616301;28;20031;-76
2023/02/16 06:48:20;;;;;;;51.15;20.60;;;-1.90;99.90;;;;;;20618785;28;20037;-74
2023/02/16 06:58:21;;;;;;;99.75;23.25;;;-1.90;99.90;;;;;;20633085;28;20424;-75
2023/02/16 07:08:22;;;;;;;93.13;27.08;;;-1.90;99.90;;;;;;20628824;28;20105;-76
2023/02/16 07:18:22;;;;;;;50.58;20.70;;;-1.90;99.90;;;;;;20619487;28;20026;-75
2023/02/16 07:28:24;;;;;;;116.65;27.27;;;-1.90;99.90;;;;;;20630634;28;20162;-75
2023/02/16 07:38:24;;;;;;;122.50;25.70;;;-1.90;99.90;;;;;;20639198;28;20726;-76
2023/02/16 07:48:26;;;;;;;185.52;27.75;;;-1.70;99.90;;;;;;20724405;28;20045;-76
2023/02/16 07:58:27;;;;;;;118.70;25.92;;;-1.50;99.90;;;;;;20708967;28;20125;-75
2023/02/16 08:08:27;;;;;;;141.75;29.60;;;-1.40;99.90;;;;;;20746501;28;20057;-74
2023/02/16 08:18:29;;;;;;;77.43;27.42;;;-0.90;99.90;;;;;;20713361;28;20033;-75
2023/02/16 08:28:30;;;;;;;147.02;29.38;;;-0.80;99.90;;;;;;20707503;28;20057;-75
2023/02/16 08:38:33;;;;;;;73.15;25.75;;;-0.50;99.90;;;;;;20668693;28;20497;-75
2023/02/16 08:48:34;;;;;;;73.95;26.75;;;-0.40;99.90;;;;;;20669096;28;20038;-76
2023/02/16 08:58:36;;;;;;;76.53;25.00;;;0.00;99.90;;;;;;20668325;28;20057;-75
2023/02/16 09:08:37;;;;;;;65.22;25.95;;;0.20;99.90;;;;;;20667291;28;20490;-76
2023/02/16 09:18:39;;;;;;;66.15;24.95;;;0.50;99.90;;;;;;20666684;28;20027;-76
2023/02/16 09:28:41;;;;;;;72.30;28.75;;;0.90;99.90;;;;;;20695111;28;20034;-76
2023/02/16 09:38:42;;;;;;;57.42;24.60;;;1.70;99.90;;;;;;20716814;28;20088;-76
2023/02/16 09:48:47;;;;;;;58.10;23.92;;;2.20;99.90;;;;;;20716263;28;20030;-75
2023/02/16 09:58:55;;;;;;;45.95;20.52;;;4.60;99.90;;;;;;20710672;28;20033;-72
2023/02/16 10:09:15;;;;;;;44.53;19.25;;;6.30;99.90;;;;;;20656245;28;20497;-73
2023/02/16 10:19:24;;;;;;;33.67;17.67;;;6.80;99.90;;;;;;20621349;28;20030;-74
2023/02/16 10:29:25;;;;;;;39.42;19.17;;;7.30;99.90;;;;;;20629864;28;20050;-74
2023/02/16 10:39:51;;;;;;;39.60;19.40;;;7.00;99.90;;;;;;20587533;28;20061;-74
2023/02/16 10:49:53;;;;;;;34.30;18.08;;;9.00;99.90;;;;;;20579956;28;20281;-74
2023/02/16 10:59:57;;;;;;;30.00;16.83;;;10.30;99.90;;;;;;20631878;28;20034;-74
2023/02/16 11:10:17;;;;;;;33.53;17.63;;;11.50;99.90;;;;;;20656438;28;20071;-74
2023/02/16 11:20:47;;;;;;;34.80;17.70;;;11.60;99.90;;;;;;20595314;28;20394;-74
2023/02/16 11:30:48;;;;;;;34.95;17.60;;;12.60;99.90;;;;;;20632913;28;20049;-74
2023/02/16 11:40:52;;;;;;;32.73;18.13;;;12.40;99.90;;;;;;20730822;28;20034;-74
2023/02/16 11:50:57;;;;;;;32.53;17.20;;;12.10;99.90;;;;;;20755544;28;20030;-74
2023/02/16 12:01:24;;;;;;;37.60;16.10;;;13.20;99.90;;;;;;20700720;28;20569;-74
2023/02/16 12:11:26;;;;;;;37.75;17.63;;;13.50;99.90;;;;;;20699763;28;20034;-74
2023/02/16 12:21:36;;;;;;;32.10;16.98;;;13.60;99.90;;;;;;20730754;28;20583;-74
2023/02/16 12:31:59;;;;;;;40.08;19.35;;;14.10;99.90;;;;;;20683538;28;20026;-74
2023/02/16 12:42:23;;;;;;;39.88;19.05;;;15.50;99.90;;;;;;20610468;28;20120;-74
2023/02/16 12:52:27;;;;;;;40.08;18.75;;;13.70;99.90;;;;;;20591561;28;20471;-74
2023/02/16 13:02:41;;;;;;;42.00;18.48;;;13.20;99.90;;;;;;20656242;28;20399;-74
2023/02/16 13:13:01;;;;;;;43.88;20.13;;;13.00;99.90;;;;;;20662706;28;20023;-74
2023/02/16 13:23:36;;;;;;;37.75;18.38;;;13.80;99.90;;;;;;20694047;28;20072;-75
2023/02/16 13:33:52;;;;;;;30.95;16.10;;;13.80;99.90;;;;;;20697964;28;20137;-74
2023/02/16 13:44:14;;;;;;;27.67;13.52;;;13.40;99.90;;;;;;20604777;28;20030;-76
2023/02/16 13:54:44;;;;;;;30.30;13.45;;;13.70;99.90;;;;;;20680267;28;20043;-76
2023/02/16 14:04:49;;;;;;;29.60;15.35;;;14.00;99.90;;;;;;20702379;28;20042;-75
2023/02/16 14:14:50;;;;;;;29.08;14.23;;;14.00;99.90;;;;;;20725437;28;20039;-74
2023/02/16 14:24:57;;;;;;;27.27;13.97;;;13.40;99.90;;;;;;20700169;28;20069;-75
2023/02/16 14:35:12;;;;;;;27.63;12.20;;;13.00;99.90;;;;;;20750711;28;20168;-75
2023/02/16 14:45:36;;;;;;;33.22;16.48;;;12.90;99.90;;;;;;20736846;28;20030;-75
2023/02/16 14:55:55;;;;;;;30.55;15.98;;;12.90;99.90;;;;;;20678629;28;20030;-75
2023/02/16 15:06:01;;;;;;;29.38;15.55;;;13.10;99.90;;;;;;20659098;28;20450;-75
2023/02/16 15:16:03;;;;;;;26.42;12.13;;;13.30;99.90;;;;;;20657682;28;20576;-74
2023/02/16 15:26:18;;;;;;;21.92;10.77;;;13.20;99.90;;;;;;20754367;28;20040;-75
2023/02/16 15:36:23;;;;;;;20.92;8.85;;;12.90;99.90;;;;;;20756261;28;20112;-75
2023/02/16 15:46:36;;;;;;;19.83;9.38;;;12.80;99.90;;;;;;20723671;28;20035;-74
2023/02/16 15:56:43;;;;;;;34.33;17.38;;;12.90;99.90;;;;;;20655838;28;20352;-75
2023/02/16 16:06:45;;;;;;;27.17;11.27;;;12.70;99.90;;;;;;20630732;28;20042;-75
2023/02/16 16:16:46;;;;;;;38.40;16.95;;;12.50;99.90;;;;;;20607625;28;20125;-76
2023/02/16 16:26:56;;;;;;;27.33;10.98;;;12.30;99.90;;;;;;20590358;28;20037;-74
2023/02/16 16:36:58;;;;;;;19.75;8.20;;;12.20;99.90;;;;;;20589963;28;20066;-76
2023/02/16 16:47:27;;;;;;;14.00;6.35;;;11.80;99.90;;;;;;20626761;28;20034;-75
2023/02/16 16:57:28;;;;;;;15.07;6.75;;;11.60;99.90;;;;;;20668408;28;20031;-76
2023/02/16 17:07:31;;;;;;;11.35;5.25;;;11.10;99.90;;;;;;20633698;28;20054;-75
2023/02/16 17:17:31;;;;;;;13.23;5.35;;;10.80;99.90;;;;;;20619590;28;20453;-75
2023/02/16 17:27:32;;;;;;;11.93;5.87;;;10.70;99.90;;;;;;20630038;28;20050;-75
2023/02/16 17:37:34;;;;;;;10.27;4.60;;;10.10;99.90;;;;;;20658456;28;20057;-75
2023/02/16 17:47:35;;;;;;;26.48;9.60;;;9.70;99.90;;;;;;20669382;28;20101;-76
2023/02/16 17:57:36;;;;;;;15.90;7.00;;;9.30;99.90;;;;;;20656591;28;20366;-76
2023/02/16 18:07:37;;;;;;;12.90;5.90;;;9.00;99.90;;;;;;20706997;28;20034;-75
2023/02/16 18:17:38;;;;;;;11.57;6.07;;;8.80;99.90;;;;;;20651331;28;20405;-76
2023/02/16 18:27:38;;;;;;;60.43;27.87;;;8.60;99.90;;;;;;20659174;28;20038;-75
2023/02/16 18:37:39;;;;;;;30.23;13.43;;;8.60;99.90;;;;;;20705957;28;20117;-75
2023/02/16 18:47:43;;;;;;;23.67;11.93;;;8.70;99.90;;;;;;20673745;28;20022;-75
2023/02/16 18:57:43;;;;;;;17.50;6.53;;;8.80;99.90;;;;;;20665892;28;20038;-76
2023/02/16 19:07:44;;;;;;;16.17;6.37;;;8.40;99.90;;;;;;20642400;28;20026;-75
2023/02/16 19:17:45;;;;;;;14.47;7.43;;;8.30;99.90;;;;;;20655356;28;20061;-75
2023/02/16 19:27:46;;;;;;;11.90;6.07;;;8.20;99.90;;;;;;20669808;28;20489;-75
2023/02/16 19:37:47;;;;;;;13.43;5.90;;;8.20;99.90;;;;;;20691613;28;20099;-75
2023/02/16 19:47:51;;;;;;;9.23;5.30;;;8.10;99.90;;;;;;20660027;28;20045;-76
2023/02/16 19:57:52;;;;;;;14.57;6.70;;;7.90;99.90;;;;;;20664789;28;20113;-75
2023/02/16 20:07:52;;;;;;;20.50;9.37;;;7.70;99.90;;;;;;20704346;28;20527;-75
2023/02/16 20:17:53;;;;;;;15.43;5.83;;;7.40;99.90;;;;;;20709656;28;20026;-76
2023/02/16 20:27:55;;;;;;;17.57;7.63;;;7.40;99.90;;;;;;20715545;28;20050;-77
2023/02/16 20:37:56;;;;;;;17.52;8.50;;;7.40;99.90;;;;;;20690417;28;20165;-77
2023/02/16 20:47:57;;;;;;;15.93;7.60;;;7.60;99.90;;;;;;20666582;28;20438;-77
2023/02/16 20:57:59;;;;;;;15.50;8.13;;;7.20;99.90;;;;;;20685648;28;20466;-78
2023/02/16 21:08:00;;;;;;;12.15;6.88;;;7.10;99.90;;;;;;20658481;28;20105;-78
2023/02/16 21:18:00;;;;;;;12.97;6.90;;;7.00;99.90;;;;;;20690619;28;20026;-75
2023/02/16 21:28:01;;;;;;;14.90;7.53;;;7.00;99.90;;;;;;20656505;28;20031;-75
2023/02/16 21:38:03;;;;;;;19.33;8.57;;;7.10;99.90;;;;;;20647011;28;20030;-75
2023/02/16 21:58:28;;;;;;;14.35;7.47;;;7.00;99.90;;;;;;20657348;28;20030;-75
2023/02/16 22:08:31;;;;;;;18.75;6.75;;;7.00;99.90;;;;;;20644536;28;20089;-75
2023/02/16 22:18:32;;;;;;;15.82;7.15;;;7.10;99.90;;;;;;20638360;28;20034;-76
2023/02/16 22:28:34;;;;;;;15.77;7.10;;;6.90;99.90;;;;;;20641695;28;20573;-76
2023/02/16 22:38:35;;;;;;;14.55;7.50;;;6.90;99.90;;;;;;20646520;28;20034;-75
2023/02/16 22:48:36;;;;;;;15.43;8.03;;;6.80;99.90;;;;;;20630556;28;20448;-75
2023/02/16 22:58:37;;;;;;;20.67;10.10;;;6.70;99.90;;;;;;20653844;28;20070;-75
2023/02/16 23:08:38;;;;;;;18.30;9.23;;;6.70;99.90;;;;;;20653473;28;20405;-75
2023/02/16 23:18:39;;;;;;;19.90;9.60;;;6.70;99.90;;;;;;20662587;28;21291;-76
2023/02/16 23:28:40;;;;;;;;;;;6.40;99.90;;;;;;20653366;28;20036;-76
2023/02/16 23:38:41;;;;;;;21.10;9.70;;;6.40;99.90;;;;;;20669777;28;19918;-75
2023/02/16 23:48:42;;;;;;;20.70;9.80;;;6.50;99.90;;;;;;20709412;28;20172;-76
2023/02/16 23:58:43;;;;;;;22.73;10.50;;;6.60;99.90;;;;;;20691862;28;20313;-76
